Time;durP1;ratioP1;P1;durP2;ratioP2;P2;SDS_P1;SDS_P2;PMS_P1;PMS_P2;Temp;Humidity;BMP_temperature;BMP_pressure;BME280_temperature;BME280_humidity;BME280_pressure;Samples;Min_cycle;Max_cycle;Signal;HPM_P1;HPM_P2
2022/01/30 00:00:37;;;;;;;6.80;2.10;;;7.00;99.90;;;;;;4986276;28;20198;-72
2022/01/30 00:03:02;;;;;;;24.13;3.33;;;7.00;99.90;;;;;;5002827;28;20243;-72
2022/01/30 00:05:30;;;;;;;11.43;2.37;;;7.00;99.90;;;;;;4986296;28;20193;-72
2022/01/30 00:07:56;;;;;;;11.60;2.87;;;7.00;99.90;;;;;;4986708;28;20193;-73
2022/01/30 00:10:22;;;;;;;17.53;3.00;;;7.00;99.90;;;;;;5001879;28;20259;-73
2022/01/30 00:12:54;;;;;;;16.43;3.47;;;7.00;99.90;;;;;;4987582;28;20205;-74
2022/01/30 00:15:34;;;;;;;15.30;2.80;;;7.00;99.90;;;;;;4986618;28;20188;-74
2022/01/30 00:18:12;;;;;;;16.07;3.27;;;7.00;99.90;;;;;;5002779;28;20181;-72
2022/01/30 00:20:40;;;;;;;14.33;2.57;;;7.00;99.90;;;;;;4986240;28;20253;-72
2022/01/30 00:23:17;;;;;;;14.73;2.37;;;6.90;99.90;;;;;;4986638;28;20274;-72
2022/01/30 00:25:55;;;;;;;13.43;2.93;;;6.90;99.90;;;;;;4987222;28;20177;-72
2022/01/30 00:28:23;;;;;;;18.40;2.40;;;6.80;99.90;;;;;;4985882;28;20711;-73
2022/01/30 00:30:50;;;;;;;13.87;2.53;;;6.80;99.90;;;;;;5005285;28;20292;-73
2022/01/30 00:33:16;;;;;;;16.13;2.63;;;6.80;99.90;;;;;;4989953;28;20210;-73
2022/01/30 00:35:41;;;;;;;19.10;3.27;;;6.80;99.90;;;;;;5007077;28;20262;-73
2022/01/30 00:38:15;;;;;;;13.37;3.13;;;6.80;99.90;;;;;;4990025;28;20196;-73
2022/01/30 00:40:42;;;;;;;14.10;2.70;;;6.80;99.90;;;;;;5006108;28;20209;-74
2022/01/30 00:43:09;;;;;;;14.97;3.47;;;6.70;99.90;;;;;;5006409;28;20193;-73
2022/01/30 00:45:35;;;;;;;15.73;2.93;;;6.60;99.90;;;;;;4989825;28;20320;-73
2022/01/30 00:48:01;;;;;;;15.03;2.73;;;6.60;99.90;;;;;;4989647;28;20678;-73
2022/01/30 00:50:27;;;;;;;16.07;2.53;;;6.60;99.90;;;;;;4988559;28;20217;-73
2022/01/30 00:52:55;;;;;;;13.33;2.60;;;6.60;99.90;;;;;;5003817;28;20280;-73
2022/01/30 00:55:25;;;;;;;16.53;2.83;;;6.60;99.90;;;;;;4988038;28;20272;-73
2022/01/30 00:57:51;;;;;;;14.80;3.03;;;6.60;99.90;;;;;;5006089;28;20252;-73
2022/01/30 01:00:17;;;;;;;15.63;2.70;;;6.50;99.90;;;;;;5004884;28;20209;-72
2022/01/30 01:02:46;;;;;;;12.10;2.20;;;6.50;99.90;;;;;;4989268;28;20268;-73
2022/01/30 01:05:12;;;;;;;10.87;1.93;;;6.50;99.90;;;;;;4990479;28;20189;-74
2022/01/30 01:07:43;;;;;;;12.30;2.13;;;6.40;99.90;;;;;;5003590;28;20190;-74
2022/01/30 01:23:44;;;;;;;17.80;3.30;;;6.30;99.90;;;;;;4988017;28;20262;-75
2022/01/30 01:26:10;;;;;;;14.47;2.10;;;6.30;99.90;;;;;;4989045;28;20194;-74
2022/01/30 01:28:37;;;;;;;12.57;2.47;;;6.30;99.90;;;;;;4988774;28;20193;-73
2022/01/30 01:31:03;;;;;;;8.50;2.23;;;6.30;99.90;;;;;;5005271;28;20209;-75
2022/01/30 01:34:02;;;;;;;15.93;2.97;;;6.40;99.90;;;;;;4989004;28;20186;-74
2022/01/30 01:36:17;;;;;;;12.83;2.37;;;6.30;99.90;;;;;;4990056;28;20213;-73
2022/01/30 01:38:43;;;;;;;18.23;2.83;;;6.30;99.90;;;;;;5004413;28;20199;-74
2022/01/30 01:41:09;;;;;;;9.40;2.10;;;6.30;99.90;;;;;;4987503;28;20677;-73
2022/01/30 01:43:36;;;;;;;13.60;2.90;;;6.30;99.90;;;;;;5003519;28;20188;-74
2022/01/30 01:46:03;;;;;;;10.67;2.90;;;6.30;99.90;;;;;;4987538;28;20193;-73
2022/01/30 01:48:34;;;;;;;13.57;2.80;;;6.30;99.90;;;;;;4987655;28;20297;-74
2022/01/30 01:51:08;;;;;;;13.23;3.43;;;6.30;99.90;;;;;;5004141;28;20197;-73
2022/01/30 01:53:34;;;;;;;7.33;2.00;;;6.30;99.90;;;;;;4988308;28;20186;-73
2022/01/30 01:56:00;;;;;;;11.20;2.53;;;6.30;99.90;;;;;;5004502;28;20212;-73
2022/01/30 01:58:27;;;;;;;13.83;2.03;;;6.20;99.90;;;;;;4987954;28;20240;-73
2022/01/30 02:00:53;;;;;;;12.93;2.63;;;6.20;99.90;;;;;;5003550;28;20329;-73
2022/01/30 02:03:22;;;;;;;14.67;2.00;;;6.20;99.90;;;;;;5004612;28;20205;-74
2022/01/30 02:05:52;;;;;;;10.30;2.77;;;6.20;99.90;;;;;;4988134;28;20185;-73
2022/01/30 02:13:51;;;;;;;12.30;2.60;;;6.10;99.90;;;;;;4988387;28;20186;-74
2022/01/30 02:27:34;;;;;;;19.20;3.23;;;6.10;99.90;;;;;;4988961;28;20186;-74
2022/01/30 02:30:01;;;;;;;10.80;1.93;;;6.20;99.90;;;;;;4986410;28;20189;-74
2022/01/30 02:32:27;;;;;;;11.77;2.13;;;6.20;99.90;;;;;;5002773;28;20218;-73
2022/01/30 02:34:52;;;;;;;9.67;2.13;;;6.20;99.90;;;;;;4985522;28;20201;-74
2022/01/30 02:37:18;;;;;;;14.70;2.50;;;6.20;99.90;;;;;;4987144;28;20240;-74
2022/01/30 02:39:44;;;;;;;13.53;3.03;;;6.20;99.90;;;;;;4986910;28;20204;-74
2022/01/30 02:42:17;;;;;;;15.33;3.03;;;6.20;99.90;;;;;;4986895;28;20568;-74
2022/01/30 02:44:54;;;;;;;12.63;2.67;;;6.20;99.90;;;;;;4990146;28;20200;-74
2022/01/30 02:52:38;;;;;;;15.07;3.03;;;5.90;99.90;;;;;;4984289;28;20300;-73
2022/01/30 02:55:05;;;;;;;16.60;2.63;;;5.80;99.90;;;;;;5006508;28;20629;-73
2022/01/30 02:57:31;;;;;;;16.97;3.20;;;5.80;99.90;;;;;;5008000;28;20178;-73
2022/01/30 02:59:57;;;;;;;24.53;2.83;;;5.70;99.90;;;;;;4989820;28;20201;-73
2022/01/30 03:02:22;;;;;;;15.23;3.33;;;5.70;99.90;;;;;;5001839;28;20190;-73
2022/01/30 03:04:48;;;;;;;14.47;2.63;;;5.70;99.90;;;;;;4991222;28;20261;-73
2022/01/30 03:07:14;;;;;;;18.27;2.43;;;5.60;99.90;;;;;;4990947;28;20658;-73
2022/01/30 03:09:39;;;;;;;17.10;3.07;;;5.60;99.90;;;;;;4990345;28;20182;-73
2022/01/30 03:12:06;;;;;;;10.23;2.60;;;5.60;99.90;;;;;;5008584;28;20275;-73
2022/01/30 03:14:32;;;;;;;16.33;2.77;;;5.70;99.90;;;;;;4990122;28;20178;-73
2022/01/30 03:16:58;;;;;;;13.97;3.03;;;5.70;99.90;;;;;;4987070;28;20308;-73
2022/01/30 03:19:23;;;;;;;15.77;2.90;;;5.70;99.90;;;;;;4987601;28;20188;-73
2022/01/30 03:21:49;;;;;;;15.27;3.20;;;5.80;99.90;;;;;;4989457;28;20223;-73
2022/01/30 03:24:15;;;;;;;13.80;2.60;;;5.80;99.90;;;;;;4995945;28;20272;-73
2022/01/30 03:26:41;;;;;;;17.10;2.50;;;5.80;99.90;;;;;;5007725;28;20178;-73
2022/01/30 03:29:08;;;;;;;15.83;2.27;;;5.80;99.90;;;;;;5006575;28;20186;-73
2022/01/30 03:31:38;;;;;;;11.33;2.57;;;5.80;99.90;;;;;;4990672;28;20256;-73
2022/01/30 03:34:07;;;;;;;16.57;2.63;;;5.80;99.90;;;;;;4991055;28;20166;-73
2022/01/30 03:36:32;;;;;;;14.73;2.47;;;5.70;99.90;;;;;;4991127;28;20233;-73
2022/01/30 03:38:58;;;;;;;14.80;3.37;;;5.70;99.90;;;;;;4990144;28;20173;-73
2022/01/30 03:41:25;;;;;;;16.33;3.10;;;5.70;99.90;;;;;;4990768;28;20213;-73
2022/01/30 03:43:51;;;;;;;14.93;2.53;;;5.70;99.90;;;;;;4986188;28;20198;-73
2022/01/30 03:46:21;;;;;;;12.80;2.47;;;5.70;99.90;;;;;;4986371;28;20189;-73
2022/01/30 03:48:47;;;;;;;16.07;3.13;;;5.60;99.90;;;;;;4987041;28;20666;-73
2022/01/30 03:51:13;;;;;;;21.90;3.83;;;5.60;99.90;;;;;;4990669;28;20198;-73
2022/01/30 03:53:39;;;;;;;22.87;3.80;;;5.60;99.90;;;;;;4990602;28;20200;-73
2022/01/30 03:56:05;;;;;;;23.63;3.67;;;5.60;99.90;;;;;;5001009;28;20194;-74
2022/01/30 03:58:32;;;;;;;21.30;3.63;;;5.60;99.90;;;;;;4990396;28;20635;-73
2022/01/30 04:00:57;;;;;;;19.27;3.60;;;5.60;99.90;;;;;;5006966;28;20567;-74
2022/01/30 04:03:23;;;;;;;18.80;3.87;;;5.60;99.90;;;;;;4990204;28;20253;-74
2022/01/30 04:05:49;;;;;;;22.77;3.90;;;5.60;99.90;;;;;;4993650;28;20231;-73
2022/01/30 04:08:15;;;;;;;18.20;3.70;;;5.70;99.90;;;;;;4994426;28;20181;-74
2022/01/30 04:10:41;;;;;;;15.53;3.97;;;5.70;99.90;;;;;;5010483;28;20267;-73
2022/01/30 04:13:07;;;;;;;15.80;3.40;;;5.60;99.90;;;;;;4994568;28;20206;-74
2022/01/30 04:15:33;;;;;;;21.30;3.37;;;5.60;99.90;;;;;;4994172;28;20695;-74
2022/01/30 04:18:00;;;;;;;15.80;3.30;;;5.50;99.90;;;;;;4993815;28;20181;-74
2022/01/30 04:20:26;;;;;;;15.73;2.90;;;5.40;99.90;;;;;;5009223;28;20815;-74
2022/01/30 04:22:51;;;;;;;18.37;2.97;;;5.20;99.90;;;;;;4994214;28;20276;-74
2022/01/30 04:25:17;;;;;;;18.07;2.87;;;5.00;99.90;;;;;;4978214;28;20325;-73
2022/01/30 04:27:43;;;;;;;20.73;3.17;;;4.90;99.90;;;;;;4992110;28;20206;-74
2022/01/30 04:30:10;;;;;;;17.43;2.80;;;4.80;99.90;;;;;;5009734;28;20208;-74
2022/01/30 04:32:41;;;;;;;11.13;2.77;;;4.70;99.90;;;;;;4994272;28;20291;-73
2022/01/30 04:35:16;;;;;;;11.50;2.80;;;4.80;99.90;;;;;;4994006;28;20316;-73
2022/01/30 04:59:16;;;;;;;16.23;3.70;;;4.60;99.90;;;;;;4994319;28;20191;-74
2022/01/30 05:07:26;;;;;;;19.57;3.63;;;4.40;99.90;;;;;;4975739;28;20169;-72
2022/01/30 05:09:40;;;;;;;22.70;4.33;;;4.50;99.90;;;;;;4991022;28;20192;-72
2022/01/30 05:12:07;;;;;;;20.43;3.47;;;4.50;99.90;;;;;;5019945;28;20204;-72
2022/01/30 05:14:35;;;;;;;16.50;3.03;;;4.50;99.90;;;;;;4993617;28;20240;-72
2022/01/30 05:17:03;;;;;;;17.93;4.17;;;4.60;99.90;;;;;;4993635;28;20189;-72
2022/01/30 05:19:29;;;;;;;19.93;4.20;;;4.60;99.90;;;;;;5002892;28;20195;-72
2022/01/30 05:21:55;;;;;;;20.87;4.27;;;4.70;99.90;;;;;;4991787;28;20224;-72
2022/01/30 05:24:21;;;;;;;28.00;4.47;;;4.70;99.90;;;;;;4992894;28;20205;-72
2022/01/30 05:26:47;;;;;;;26.50;3.70;;;4.70;99.90;;;;;;4995886;28;20197;-72
2022/01/30 05:29:15;;;;;;;21.73;3.97;;;4.70;99.90;;;;;;4992390;28;20184;-72
2022/01/30 05:31:41;;;;;;;22.10;4.63;;;4.80;99.90;;;;;;4998415;28;20214;-74
2022/01/30 05:34:07;;;;;;;29.30;5.00;;;4.80;99.90;;;;;;5023265;28;20176;-74
2022/01/30 05:36:35;;;;;;;36.20;4.93;;;4.80;99.90;;;;;;4992097;28;20181;-72
2022/01/30 05:39:01;;;;;;;27.97;5.27;;;4.80;99.90;;;;;;4991967;28;20202;-74
2022/01/30 05:41:27;;;;;;;27.37;5.70;;;4.80;99.90;;;;;;4992085;28;20257;-74
2022/01/30 05:43:57;;;;;;;28.10;5.90;;;4.80;99.90;;;;;;4992104;28;20279;-73
2022/01/30 05:46:32;;;;;;;28.43;4.17;;;4.90;99.90;;;;;;4991649;28;20296;-74
2022/01/30 05:48:58;;;;;;;32.10;5.83;;;4.90;99.90;;;;;;4989769;28;20189;-74
2022/01/30 05:51:23;;;;;;;29.47;4.83;;;4.90;99.90;;;;;;4994364;28;20212;-74
2022/01/30 05:53:49;;;;;;;27.50;5.43;;;4.90;99.90;;;;;;4992087;28;20180;-74
2022/01/30 05:56:15;;;;;;;33.60;5.13;;;5.00;99.90;;;;;;5008328;28;20641;-74
2022/01/30 05:58:41;;;;;;;31.13;5.47;;;5.00;99.90;;;;;;4991255;28;20189;-74
2022/01/30 06:01:06;;;;;;;29.37;5.83;;;5.00;99.90;;;;;;4991864;28;20193;-74
2022/01/30 06:03:32;;;;;;;22.90;4.63;;;5.00;99.90;;;;;;4991457;28;20188;-74
2022/01/30 06:05:58;;;;;;;35.20;5.40;;;5.00;99.90;;;;;;4992392;28;20190;-74
2022/01/30 06:08:45;;;;;;;29.70;5.63;;;5.00;99.90;;;;;;4990940;28;20189;-74
2022/01/30 06:11:12;;;;;;;30.90;5.10;;;5.00;99.90;;;;;;4992017;28;20212;-74
2022/01/30 06:13:38;;;;;;;32.83;5.07;;;5.10;99.90;;;;;;4992009;28;20647;-74
2022/01/30 06:16:05;;;;;;;31.50;6.37;;;5.10;99.90;;;;;;4991945;28;20178;-74
2022/01/30 06:18:30;;;;;;;29.03;4.60;;;5.10;99.90;;;;;;5007660;28;20209;-74
2022/01/30 06:20:57;;;;;;;30.87;5.30;;;5.20;99.90;;;;;;4991327;28;20245;-74
2022/01/30 06:23:26;;;;;;;21.93;4.67;;;5.20;99.90;;;;;;4979691;28;20248;-75
2022/01/30 06:25:52;;;;;;;27.70;4.77;;;5.20;99.90;;;;;;4992228;28;20220;-74
2022/01/30 06:28:18;;;;;;;26.30;5.10;;;5.20;99.90;;;;;;5007780;28;20261;-74
2022/01/30 06:30:44;;;;;;;26.27;4.13;;;5.20;99.90;;;;;;4991629;28;20284;-74
2022/01/30 06:33:09;;;;;;;32.10;5.03;;;5.20;99.90;;;;;;4991536;28;20205;-74
2022/01/30 06:35:35;;;;;;;33.77;4.53;;;5.20;99.90;;;;;;5027614;28;20169;-74
2022/01/30 06:38:02;;;;;;;24.07;4.53;;;5.20;99.90;;;;;;4997857;28;20185;-75
2022/01/30 06:40:28;;;;;;;27.07;5.13;;;5.20;99.90;;;;;;4991068;28;20260;-74
2022/01/30 06:42:54;;;;;;;20.90;4.73;;;5.20;99.90;;;;;;4990779;28;20189;-74
2022/01/30 06:45:20;;;;;;;25.50;5.10;;;5.20;99.90;;;;;;4991784;28;20188;-75
2022/01/30 06:47:46;;;;;;;16.13;4.10;;;5.20;99.90;;;;;;4988768;28;20194;-74
2022/01/30 06:50:13;;;;;;;20.03;4.70;;;5.20;99.90;;;;;;4974789;28;20280;-74
2022/01/30 06:52:39;;;;;;;17.27;3.57;;;5.10;99.90;;;;;;5008316;28;20212;-74
2022/01/30 06:55:05;;;;;;;20.63;3.53;;;5.10;99.90;;;;;;5008003;28;20741;-74
2022/01/30 06:57:31;;;;;;;20.43;3.50;;;5.20;99.90;;;;;;4991497;28;20180;-74
2022/01/30 06:59:57;;;;;;;22.17;3.40;;;5.10;99.90;;;;;;4990340;28;20265;-74
2022/01/30 07:02:22;;;;;;;23.70;4.07;;;5.10;99.90;;;;;;4989313;28;20185;-73
2022/01/30 07:04:48;;;;;;;17.50;3.53;;;5.10;99.90;;;;;;4996435;28;20292;-73
2022/01/30 07:07:14;;;;;;;21.53;4.03;;;5.10;99.90;;;;;;5007091;28;20180;-74
2022/01/30 07:09:40;;;;;;;23.90;4.60;;;5.00;99.90;;;;;;5006802;28;20181;-73
2022/01/30 07:12:08;;;;;;;21.80;3.80;;;5.00;99.90;;;;;;5006300;28;20686;-74
2022/01/30 07:14:33;;;;;;;21.07;3.67;;;5.00;99.90;;;;;;4990913;28;20183;-74
2022/01/30 07:16:59;;;;;;;27.80;4.73;;;5.00;99.90;;;;;;4990846;28;20192;-74
2022/01/30 07:19:25;;;;;;;23.27;4.00;;;5.00;99.90;;;;;;4993108;28;20272;-74
2022/01/30 07:21:51;;;;;;;19.33;4.43;;;5.10;99.90;;;;;;4992690;28;20364;-73
2022/01/30 07:24:17;;;;;;;25.77;3.77;;;5.10;99.90;;;;;;4990590;28;20228;-74
2022/01/30 07:26:42;;;;;;;33.83;6.10;;;5.10;99.90;;;;;;5001285;28;20276;-74
2022/01/30 07:29:09;;;;;;;24.07;4.93;;;5.10;99.90;;;;;;4990516;28;20665;-74
2022/01/30 07:31:34;;;;;;;25.23;4.63;;;5.10;99.90;;;;;;5005312;28;20214;-74
2022/01/30 07:34:01;;;;;;;23.30;4.60;;;5.20;99.90;;;;;;5007622;28;20183;-73
2022/01/30 07:36:28;;;;;;;22.33;4.87;;;5.20;99.90;;;;;;4991010;28;20240;-73
2022/01/30 07:38:55;;;;;;;21.17;5.47;;;5.20;99.90;;;;;;5006813;28;20182;-74
2022/01/30 07:41:21;;;;;;;23.93;5.17;;;5.20;99.90;;;;;;4997068;28;20204;-74
2022/01/30 07:43:47;;;;;;;20.33;4.47;;;5.20;99.90;;;;;;5004461;28;20349;-73
2022/01/30 07:46:13;;;;;;;24.57;5.10;;;5.30;99.90;;;;;;4994938;28;20553;-74
2022/01/30 07:48:39;;;;;;;29.80;4.87;;;5.20;99.90;;;;;;4995846;28;20192;-74
2022/01/30 07:51:05;;;;;;;22.97;4.77;;;5.30;99.90;;;;;;4994872;28;20209;-74
2022/01/30 07:53:31;;;;;;;33.17;5.37;;;5.20;99.90;;;;;;4996833;28;20212;-74
2022/01/30 07:55:57;;;;;;;29.07;5.17;;;5.20;99.90;;;;;;5022219;28;20269;-74
2022/01/30 07:58:23;;;;;;;31.50;4.80;;;5.20;99.90;;;;;;4994126;28;20268;-73
2022/01/30 08:00:49;;;;;;;33.23;5.93;;;5.20;99.90;;;;;;4994448;28;20200;-74
2022/01/30 08:03:15;;;;;;;29.33;4.57;;;5.20;99.90;;;;;;5012973;28;20217;-73
2022/01/30 08:05:40;;;;;;;25.27;4.77;;;5.20;99.90;;;;;;4992079;28;20231;-73
2022/01/30 08:08:06;;;;;;;29.60;5.17;;;5.20;99.90;;;;;;4994407;28;20184;-74
2022/01/30 08:10:34;;;;;;;19.27;3.77;;;5.20;99.90;;;;;;4993983;28;20304;-73
2022/01/30 08:13:00;;;;;;;25.13;5.27;;;5.30;99.90;;;;;;4993484;28;20212;-73
2022/01/30 08:15:26;;;;;;;26.03;4.40;;;5.30;99.90;;;;;;4980116;28;20901;-73
2022/01/30 08:17:51;;;;;;;22.17;4.13;;;5.30;99.90;;;;;;4994383;28;20181;-73
2022/01/30 08:20:18;;;;;;;26.10;5.13;;;5.30;99.90;;;;;;5001269;28;20209;-73
2022/01/30 08:22:54;;;;;;;27.17;4.80;;;5.30;99.90;;;;;;5019256;28;20191;-74
2022/01/30 08:25:23;;;;;;;33.13;4.80;;;5.30;99.90;;;;;;4996789;28;20201;-73
2022/01/30 08:27:50;;;;;;;23.00;4.27;;;5.30;99.90;;;;;;4999718;28;20216;-73
2022/01/30 08:30:16;;;;;;;27.27;5.63;;;5.30;99.90;;;;;;4992152;28;20236;-73
2022/01/30 08:32:44;;;;;;;30.47;4.63;;;5.30;99.90;;;;;;5009065;28;20237;-74
2022/01/30 08:35:12;;;;;;;23.53;4.47;;;5.30;99.90;;;;;;4992637;28;20185;-73
2022/01/30 08:37:38;;;;;;;18.63;4.47;;;5.40;99.90;;;;;;5003973;28;20286;-73
2022/01/30 08:40:05;;;;;;;17.90;4.30;;;5.40;99.90;;;;;;4991096;28;20198;-74
2022/01/30 08:42:31;;;;;;;22.37;4.70;;;5.40;99.90;;;;;;4988166;28;20186;-73
2022/01/30 08:44:57;;;;;;;28.60;4.80;;;5.40;99.90;;;;;;5013668;28;20238;-74
2022/01/30 08:47:22;;;;;;;26.07;4.57;;;5.40;99.90;;;;;;5011929;28;20242;-73
2022/01/30 08:49:48;;;;;;;26.67;4.53;;;5.40;99.90;;;;;;4980253;28;20201;-74
2022/01/30 08:52:16;;;;;;;24.20;4.73;;;5.40;99.90;;;;;;4992319;28;20201;-74
2022/01/30 08:54:42;;;;;;;20.43;4.40;;;5.40;99.90;;;;;;5010834;28;20656;-74
2022/01/30 08:57:08;;;;;;;26.30;4.37;;;5.40;99.90;;;;;;5004031;28;20174;-74
2022/01/30 08:59:34;;;;;;;31.13;5.07;;;5.50;99.90;;;;;;4991744;28;20254;-74
2022/01/30 09:01:59;;;;;;;18.63;4.17;;;5.50;99.90;;;;;;4989711;28;20236;-74
2022/01/30 09:04:25;;;;;;;23.53;5.83;;;5.50;99.90;;;;;;4994774;28;20185;-74
2022/01/30 09:06:51;;;;;;;26.30;4.70;;;5.50;99.90;;;;;;4992074;28;20272;-73
2022/01/30 09:09:16;;;;;;;31.47;4.77;;;5.50;99.90;;;;;;5007464;28;20198;-73
2022/01/30 09:11:42;;;;;;;24.80;4.23;;;5.50;99.90;;;;;;4992121;28;20216;-73
2022/01/30 09:14:08;;;;;;;25.50;4.93;;;5.50;99.90;;;;;;4992067;28;20181;-73
2022/01/30 09:16:34;;;;;;;32.37;4.67;;;5.50;99.90;;;;;;4992427;28;20182;-74
2022/01/30 09:18:59;;;;;;;15.53;3.87;;;5.60;99.90;;;;;;4992046;28;20578;-73
2022/01/30 09:21:25;;;;;;;20.77;4.70;;;5.60;99.90;;;;;;4946100;28;1158890;-73
2022/01/30 09:23:52;;;;;;;23.20;4.43;;;5.60;99.90;;;;;;4993069;28;20269;-74
2022/01/30 09:26:19;;;;;;;35.10;5.27;;;5.60;99.90;;;;;;4991300;28;20235;-73
2022/01/30 09:28:44;;;;;;;18.97;3.97;;;5.60;99.90;;;;;;4992166;28;20264;-74
2022/01/30 09:31:10;;;;;;;27.23;4.67;;;5.70;99.90;;;;;;4989336;28;20209;-73
2022/01/30 09:33:35;;;;;;;25.27;4.60;;;5.70;99.90;;;;;;4992741;28;20209;-72
2022/01/30 09:36:01;;;;;;;27.93;5.87;;;5.80;99.90;;;;;;4992595;28;20181;-72
2022/01/30 09:38:26;;;;;;;32.53;5.33;;;5.80;99.90;;;;;;4991881;28;20208;-73
2022/01/30 09:40:56;;;;;;;24.80;5.03;;;5.90;99.90;;;;;;5008404;28;20206;-75
2022/01/30 09:43:22;;;;;;;23.93;4.23;;;5.90;99.90;;;;;;4991851;28;20193;-72
2022/01/30 09:45:49;;;;;;;31.87;5.83;;;5.90;99.90;;;;;;4991744;28;20607;-73
2022/01/30 09:48:17;;;;;;;21.93;4.90;;;5.90;99.90;;;;;;5008896;28;20550;-74
2022/01/30 09:50:43;;;;;;;27.90;4.77;;;5.90;99.90;;;;;;4988041;28;20237;-71
2022/01/30 09:53:09;;;;;;;26.73;4.53;;;6.00;99.90;;;;;;4992276;28;20315;-71
2022/01/30 09:55:34;;;;;;;27.27;4.97;;;6.00;99.90;;;;;;4992496;28;20181;-71
2022/01/30 09:58:00;;;;;;;25.67;5.70;;;6.00;99.90;;;;;;4992909;28;20204;-71
2022/01/30 10:00:26;;;;;;;28.10;5.40;;;6.10;99.90;;;;;;4982010;28;20260;-71
2022/01/30 10:02:51;;;;;;;30.17;5.37;;;6.10;99.90;;;;;;4972290;28;20193;-71
2022/01/30 10:05:18;;;;;;;25.70;4.77;;;6.10;99.90;;;;;;4977906;28;20229;-71
2022/01/30 10:07:54;;;;;;;23.93;4.33;;;6.10;99.90;;;;;;4992324;28;20238;-71
2022/01/30 10:10:24;;;;;;;31.20;5.33;;;6.10;99.90;;;;;;4991576;28;20208;-71
2022/01/30 10:13:08;;;;;;;32.33;5.40;;;6.20;99.90;;;;;;4992209;28;20202;-71
2022/01/30 10:15:56;;;;;;;31.03;4.67;;;6.20;99.90;;;;;;4992106;28;20174;-71
2022/01/30 10:18:26;;;;;;;23.03;4.70;;;6.20;99.90;;;;;;4996617;28;20193;-71
2022/01/30 10:20:52;;;;;;;17.70;4.03;;;6.20;99.90;;;;;;5006169;28;20241;-71
2022/01/30 10:23:17;;;;;;;27.80;4.93;;;6.20;99.90;;;;;;4992246;28;20231;-71
2022/01/30 10:25:52;;;;;;;20.37;4.70;;;6.20;99.90;;;;;;5008236;28;20185;-71
2022/01/30 10:28:30;;;;;;;20.50;4.77;;;6.30;99.90;;;;;;5007958;28;20177;-71
2022/01/30 10:31:07;;;;;;;23.17;4.63;;;6.30;99.90;;;;;;4991687;28;20284;-71
2022/01/30 10:33:47;;;;;;;25.37;5.53;;;6.30;99.90;;;;;;4991923;28;20210;-71
2022/01/30 10:36:22;;;;;;;22.43;4.83;;;6.30;99.90;;;;;;4979969;28;20200;-71
2022/01/30 10:39:17;;;;;;;26.27;5.30;;;6.40;99.90;;;;;;4991221;28;20173;-71
2022/01/30 10:41:53;;;;;;;28.60;6.10;;;6.40;99.90;;;;;;4991668;28;20213;-70
2022/01/30 10:44:19;;;;;;;18.90;3.73;;;6.40;99.90;;;;;;4985553;28;20205;-71
2022/01/30 10:46:51;;;;;;;25.77;4.43;;;6.50;99.90;;;;;;4985379;28;20186;-70
2022/01/30 10:49:22;;;;;;;22.40;4.63;;;6.50;99.90;;;;;;4986332;28;20276;-75
2022/01/30 10:51:56;;;;;;;25.27;4.03;;;6.60;99.90;;;;;;4991003;28;20217;-71
2022/01/30 10:54:26;;;;;;;24.17;5.27;;;6.60;99.90;;;;;;4990625;28;20200;-71
2022/01/30 10:57:11;;;;;;;26.60;4.27;;;6.70;99.90;;;;;;4990957;28;20174;-71
2022/01/30 10:59:42;;;;;;;27.87;5.33;;;6.70;99.90;;;;;;4990398;28;20265;-71
2022/01/30 11:02:15;;;;;;;23.07;4.30;;;6.70;99.90;;;;;;4990789;28;20201;-71
2022/01/30 11:04:41;;;;;;;17.10;3.77;;;6.70;99.90;;;;;;4991024;28;20228;-71
2022/01/30 11:07:08;;;;;;;18.10;3.70;;;6.70;99.90;;;;;;4991289;28;20185;-71
2022/01/30 11:12:03;;;;;;;19.03;4.37;;;6.70;99.90;;;;;;4992563;28;20213;-71
2022/01/30 11:14:40;;;;;;;25.70;4.77;;;6.70;99.90;;;;;;5006810;28;20193;-71
2022/01/30 11:17:08;;;;;;;24.53;4.20;;;6.70;99.90;;;;;;4991371;28;20177;-71
2022/01/30 11:19:39;;;;;;;17.07;3.97;;;6.70;99.90;;;;;;4983334;28;20174;-71
2022/01/30 11:22:19;;;;;;;25.70;4.87;;;6.70;99.90;;;;;;4991055;28;20237;-72
2022/01/30 11:25:07;;;;;;;17.77;4.30;;;6.80;99.90;;;;;;4991456;28;20571;-71
2022/01/30 11:27:37;;;;;;;19.30;4.03;;;6.80;99.90;;;;;;4990865;28;20201;-71
2022/01/30 11:30:03;;;;;;;28.50;5.03;;;6.70;99.90;;;;;;4994277;28;20272;-70
2022/01/30 11:32:29;;;;;;;20.90;4.63;;;6.80;99.90;;;;;;4986488;28;20210;-71
2022/01/30 11:34:56;;;;;;;32.87;4.97;;;6.70;99.90;;;;;;4984155;28;20273;-71
2022/01/30 11:37:25;;;;;;;19.80;4.13;;;6.70;99.90;;;;;;5005988;28;20177;-71
2022/01/30 11:39:52;;;;;;;22.77;4.43;;;6.70;99.90;;;;;;4989706;28;20184;-71
2022/01/30 11:42:37;;;;;;;23.60;4.57;;;6.70;99.90;;;;;;4990741;28;20189;-71
2022/01/30 11:45:27;;;;;;;41.50;5.87;;;6.70;99.90;;;;;;4990551;28;20178;-71
2022/01/30 11:48:11;;;;;;;31.53;5.03;;;6.80;99.90;;;;;;4986506;28;20193;-70
2022/01/30 11:50:36;;;;;;;21.70;4.60;;;6.90;99.90;;;;;;5003282;28;20558;-70
2022/01/30 11:53:07;;;;;;;21.60;5.27;;;6.90;99.90;;;;;;4990678;28;20727;-70
2022/01/30 11:55:49;;;;;;;26.27;5.20;;;6.90;99.90;;;;;;5006266;28;20675;-71
2022/01/30 11:58:30;;;;;;;28.13;4.87;;;6.90;99.90;;;;;;5006742;28;20224;-71
2022/01/30 12:01:25;;;;;;;30.70;6.13;;;6.80;99.90;;;;;;4986379;28;20185;-72
2022/01/30 12:04:01;;;;;;;28.13;4.73;;;6.90;99.90;;;;;;4989709;28;20181;-72
2022/01/30 12:06:33;;;;;;;27.53;4.43;;;6.90;99.90;;;;;;4990743;28;20256;-72
2022/01/30 12:09:04;;;;;;;29.70;5.60;;;6.90;99.90;;;;;;4992993;28;20198;-72
2022/01/30 12:11:36;;;;;;;34.03;5.20;;;6.90;99.90;;;;;;4996315;28;20220;-72
2022/01/30 12:14:11;;;;;;;29.97;5.60;;;6.90;99.90;;;;;;5002325;28;20678;-72
2022/01/30 12:16:46;;;;;;;28.57;5.10;;;6.90;99.90;;;;;;4990227;28;20598;-72
2022/01/30 12:19:16;;;;;;;28.10;5.40;;;6.90;99.90;;;;;;4988323;28;20193;-72
2022/01/30 12:21:43;;;;;;;33.97;5.83;;;6.90;99.90;;;;;;4990522;28;20205;-72
2022/01/30 12:24:25;;;;;;;28.33;5.00;;;7.00;99.90;;;;;;4990814;28;20236;-71
2022/01/30 12:27:00;;;;;;;26.20;5.50;;;7.00;99.90;;;;;;4995201;28;20538;-72
2022/01/30 12:29:42;;;;;;;36.87;5.57;;;7.00;99.90;;;;;;5027460;28;20772;-72
2022/01/30 12:32:22;;;;;;;26.00;4.80;;;7.00;99.90;;;;;;4994023;28;20210;-70
2022/01/30 12:34:54;;;;;;;18.87;4.03;;;6.90;99.90;;;;;;5001904;28;20205;-70
2022/01/30 12:37:29;;;;;;;24.73;5.60;;;7.00;99.90;;;;;;5007293;28;20174;-70
2022/01/30 12:39:58;;;;;;;23.10;5.17;;;7.00;99.90;;;;;;4993586;28;20169;-70
2022/01/30 12:42:27;;;;;;;27.57;4.70;;;6.90;99.90;;;;;;4993700;28;20178;-70
2022/01/30 12:44:59;;;;;;;26.50;4.43;;;7.00;99.90;;;;;;4994346;28;20181;-70
2022/01/30 12:47:25;;;;;;;23.03;4.07;;;7.00;99.90;;;;;;5003665;28;20181;-72
2022/01/30 12:50:04;;;;;;;21.93;3.87;;;7.10;99.90;;;;;;5003936;28;20208;-71
2022/01/30 12:52:35;;;;;;;18.63;4.13;;;7.10;99.90;;;;;;4993416;28;20209;-72
2022/01/30 12:55:08;;;;;;;23.00;3.80;;;7.00;99.90;;;;;;4994241;28;20192;-72
2022/01/30 12:57:35;;;;;;;28.23;4.47;;;7.00;99.90;;;;;;4992653;28;20181;-72
2022/01/30 13:00:03;;;;;;;27.50;4.30;;;7.00;99.90;;;;;;4992262;28;20178;-72
2022/01/30 13:02:30;;;;;;;19.97;4.03;;;7.00;99.90;;;;;;4993299;28;20182;-72
2022/01/30 13:05:02;;;;;;;29.87;4.90;;;7.00;99.90;;;;;;4993361;28;20592;-71
2022/01/30 13:07:28;;;;;;;24.00;4.40;;;7.00;99.90;;;;;;5009307;28;20182;-72
2022/01/30 13:10:08;;;;;;;19.27;3.60;;;7.00;99.90;;;;;;4992960;28;20264;-72
2022/01/30 13:12:33;;;;;;;25.57;4.47;;;7.00;99.90;;;;;;4989303;28;20292;-72
2022/01/30 13:15:05;;;;;;;29.83;4.60;;;7.00;99.90;;;;;;5010683;28;20315;-72
2022/01/30 13:17:31;;;;;;;21.37;4.27;;;7.00;99.90;;;;;;4993033;28;20176;-72
2022/01/30 13:19:57;;;;;;;21.20;4.20;;;6.90;99.90;;;;;;4992181;28;20197;-71
2022/01/30 13:22:29;;;;;;;30.10;4.97;;;6.90;99.90;;;;;;4993142;28;20198;-72
2022/01/30 13:24:58;;;;;;;23.80;4.50;;;6.90;99.90;;;;;;4996778;28;20189;-72
2022/01/30 13:27:27;;;;;;;23.23;3.70;;;6.90;99.90;;;;;;4994183;28;20184;-70
2022/01/30 13:29:53;;;;;;;24.07;5.03;;;6.90;99.90;;;;;;4990804;28;20222;-70
2022/01/30 13:32:24;;;;;;;27.90;4.43;;;6.90;99.90;;;;;;4997265;28;20277;-70
2022/01/30 13:34:50;;;;;;;26.67;4.87;;;6.90;99.90;;;;;;4994788;28;20190;-70
2022/01/30 13:37:19;;;;;;;30.70;4.57;;;6.90;99.90;;;;;;5003691;28;20206;-72
2022/01/30 13:42:43;;;;;;;27.47;4.97;;;6.80;99.90;;;;;;4991743;28;20264;-70
2022/01/30 13:48:06;;;;;;;28.23;4.37;;;6.90;99.90;;;;;;4983183;28;20178;-71
2022/01/30 13:50:43;;;;;;;20.73;4.33;;;6.80;99.90;;;;;;4993733;28;20216;-70
2022/01/30 13:53:10;;;;;;;30.80;4.47;;;6.80;99.90;;;;;;4994313;28;20228;-71
2022/01/30 13:56:11;;;;;;;19.80;4.37;;;6.80;99.90;;;;;;4991537;28;20223;-71
2022/01/30 13:58:37;;;;;;;27.13;5.27;;;6.80;99.90;;;;;;4986094;28;20189;-71
2022/01/30 14:01:08;;;;;;;17.50;3.50;;;6.80;99.90;;;;;;5000801;28;20670;-71
2022/01/30 14:03:35;;;;;;;30.50;4.37;;;6.80;99.90;;;;;;4973215;28;20190;-71
2022/01/30 14:06:02;;;;;;;26.60;5.03;;;6.80;99.90;;;;;;4973441;28;20229;-71